createdAt,value
2023-02-11T00:01:26.075Z,30.50
2023-02-11T00:03:55.807Z,30.77
2023-02-11T00:06:25.799Z,29.10
2023-02-11T00:08:54.107Z,29.90
2023-02-11T00:11:25.677Z,31.80
2023-02-11T00:13:55.363Z,30.30
2023-02-11T00:16:24.120Z,30.37
2023-02-11T00:18:53.300Z,29.90
2023-02-11T00:21:26.046Z,30.17
2023-02-11T00:23:55.032Z,29.87
2023-02-11T00:26:25.061Z,30.90
2023-02-11T00:28:57.233Z,30.53
2023-02-11T00:31:26.420Z,29.83
2023-02-11T00:33:55.035Z,29.97
2023-02-11T00:36:25.276Z,28.90
2023-02-11T00:38:55.327Z,28.47
2023-02-11T00:41:24.352Z,29.10
2023-02-11T00:43:52.699Z,30.57
2023-02-11T00:46:22.525Z,30.17
2023-02-11T00:48:51.967Z,28.27
2023-02-11T00:51:20.408Z,29.17
2023-02-11T00:53:52.416Z,29.17
2023-02-11T00:56:20.590Z,29.13
2023-02-11T00:58:49.255Z,28.23
2023-02-11T01:01:17.291Z,30.20
2023-02-11T01:03:46.808Z,29.97
2023-02-11T01:06:17.715Z,29.73
2023-02-11T01:08:46.111Z,27.87
2023-02-11T01:11:16.931Z,30.73
2023-02-11T01:13:45.716Z,30.00
2023-02-11T01:16:15.049Z,28.80
2023-02-11T01:18:44.562Z,29.73
2023-02-11T01:21:14.981Z,28.93
2023-02-11T01:23:43.941Z,28.90
2023-02-11T01:26:12.285Z,28.43
2023-02-11T01:28:40.494Z,29.63
2023-02-11T01:31:08.753Z,27.53
2023-02-11T01:33:40.047Z,29.90
2023-02-11T01:36:08.833Z,27.57
2023-02-11T01:38:40.244Z,27.80
2023-02-11T01:41:10.885Z,27.83
2023-02-11T01:43:43.664Z,28.67
2023-02-11T01:46:36.604Z,27.77
2023-02-11T01:49:09.275Z,27.57
2023-02-11T01:51:41.055Z,27.03
2023-02-11T01:54:30.571Z,27.27
2023-02-11T01:57:18.334Z,26.63
2023-02-11T01:59:53.795Z,27.20
2023-02-11T02:02:26.561Z,26.37
2023-02-11T02:05:01.154Z,27.70
2023-02-11T02:07:35.612Z,25.93
2023-02-11T02:10:12.915Z,26.40
2023-02-11T02:12:43.692Z,27.43
2023-02-11T02:15:24.451Z,26.47
2023-02-11T02:18:02.681Z,26.70
2023-02-11T02:21:15.237Z,25.40
2023-02-11T02:24:25.288Z,25.23
2023-02-11T02:27:27.604Z,25.63
2023-02-11T02:30:22.247Z,25.93
2023-02-11T02:33:02.220Z,26.57
2023-02-11T02:35:43.955Z,25.77
2023-02-11T02:38:17.900Z,26.53
2023-02-11T02:40:50.943Z,25.80
2023-02-11T02:43:20.746Z,26.67
2023-02-11T02:45:49.264Z,26.30
2023-02-11T02:48:27.946Z,28.90
2023-02-11T02:51:06.705Z,32.20
2023-02-11T02:53:53.011Z,27.60
2023-02-11T02:56:32.960Z,27.37
2023-02-11T02:59:25.392Z,26.03
2023-02-11T03:02:05.125Z,24.80
2023-02-11T03:04:42.410Z,25.50
2023-02-11T03:07:18.902Z,26.60
2023-02-11T03:09:53.490Z,25.10
2023-02-11T03:12:23.714Z,26.17
2023-02-11T03:14:54.153Z,24.73
2023-02-11T03:17:25.317Z,26.17
2023-02-11T03:19:56.430Z,28.30
2023-02-11T03:22:28.789Z,27.57
2023-02-11T03:24:57.801Z,28.37
2023-02-11T03:27:30.263Z,27.33
2023-02-11T03:30:06.959Z,27.40
2023-02-11T03:32:40.067Z,28.13
2023-02-11T03:35:16.081Z,29.67
2023-02-11T03:37:51.809Z,38.17
2023-02-11T03:40:23.611Z,30.10
2023-02-11T03:42:55.997Z,29.47
2023-02-11T03:45:26.261Z,28.60
2023-02-11T03:47:59.486Z,28.97
2023-02-11T03:50:31.650Z,28.63
2023-02-11T03:53:02.523Z,29.87
2023-02-11T03:55:34.561Z,30.20
2023-02-11T03:58:03.058Z,29.10
2023-02-11T04:00:32.657Z,30.10
2023-02-11T04:03:00.904Z,30.33
2023-02-11T04:05:32.199Z,31.67
2023-02-11T04:08:02.024Z,29.83
2023-02-11T04:10:30.265Z,30.60
2023-02-11T04:12:59.039Z,29.67
2023-02-11T04:15:27.970Z,30.27
2023-02-11T04:17:57.235Z,31.23
2023-02-11T04:20:25.643Z,31.20
2023-02-11T04:22:55.150Z,31.37
2023-02-11T04:25:23.312Z,30.50
2023-02-11T04:27:52.518Z,30.87
2023-02-11T04:30:20.890Z,29.33
2023-02-11T04:32:49.224Z,30.47
2023-02-11T04:35:17.500Z,30.50
2023-02-11T04:37:45.661Z,29.40
2023-02-11T04:40:15.266Z,28.97
2023-02-11T04:42:43.577Z,31.57
2023-02-11T04:45:12.103Z,29.80
2023-02-11T04:47:40.680Z,30.27
2023-02-11T04:50:09.001Z,29.87
2023-02-11T04:52:37.073Z,29.17
2023-02-11T04:55:05.683Z,29.00
2023-02-11T04:57:35.724Z,29.73
2023-02-11T05:00:06.100Z,31.03
2023-02-11T05:02:34.593Z,30.23
2023-02-11T05:05:02.923Z,29.80
2023-02-11T05:07:31.014Z,30.80
2023-02-11T05:09:59.093Z,31.23
2023-02-11T05:12:27.319Z,30.53
2023-02-11T05:14:57.439Z,32.27
2023-02-11T05:17:25.848Z,31.20
2023-02-11T05:19:54.029Z,32.73
2023-02-11T05:22:22.571Z,30.27
2023-02-11T05:24:53.449Z,30.67
2023-02-11T05:27:22.008Z,31.23
2023-02-11T05:29:50.133Z,31.40
2023-02-11T05:32:19.712Z,31.60
2023-02-11T05:34:48.096Z,32.80
2023-02-11T05:37:16.626Z,32.73
2023-02-11T05:39:44.926Z,31.93
2023-02-11T05:42:15.288Z,32.50
2023-02-11T05:44:43.727Z,33.77
2023-02-11T05:47:13.394Z,33.57
2023-02-11T05:49:45.342Z,33.90
2023-02-11T05:52:17.168Z,36.77
2023-02-11T05:54:48.364Z,36.13
2023-02-11T05:57:18.793Z,52.73
2023-02-11T05:59:46.951Z,40.37
2023-02-11T06:02:15.043Z,35.10
2023-02-11T06:04:44.822Z,35.60
2023-02-11T06:07:13.503Z,33.93
2023-02-11T06:09:41.938Z,34.57
2023-02-11T06:12:10.108Z,32.00
2023-02-11T06:14:38.671Z,36.83
2023-02-11T06:17:07.354Z,36.83
2023-02-11T06:19:36.393Z,35.20
2023-02-11T06:22:06.745Z,34.10
2023-02-11T06:24:54.960Z,32.37
2023-02-11T06:27:24.748Z,31.83
2023-02-11T06:29:53.833Z,33.23
2023-02-11T06:32:42.160Z,32.83
2023-02-11T06:35:12.283Z,31.83
2023-02-11T06:37:44.542Z,32.47
2023-02-11T06:40:13.708Z,35.40
2023-02-11T06:42:42.080Z,34.33
2023-02-11T06:45:11.912Z,34.20
2023-02-11T06:47:40.999Z,33.20
2023-02-11T06:50:12.339Z,34.37
2023-02-11T06:52:40.576Z,34.33
2023-02-11T06:55:11.475Z,33.00
2023-02-11T06:57:39.765Z,34.23
2023-02-11T07:00:09.107Z,33.87
2023-02-11T07:02:37.995Z,33.57
2023-02-11T07:05:08.260Z,33.80
2023-02-11T07:07:36.572Z,35.70
2023-02-11T07:10:06.061Z,34.40
2023-02-11T07:12:36.336Z,34.53
2023-02-11T07:15:04.918Z,34.70
2023-02-11T07:17:33.030Z,35.90
2023-02-11T07:20:01.445Z,37.13
2023-02-11T07:22:31.115Z,36.50
2023-02-11T07:24:59.759Z,38.03
2023-02-11T07:27:27.895Z,35.00
2023-02-11T07:29:57.408Z,36.03
2023-02-11T07:32:25.749Z,35.37
2023-02-11T07:34:54.007Z,36.83
2023-02-11T07:37:23.745Z,37.13
2023-02-11T07:39:51.965Z,38.57
2023-02-11T07:42:20.572Z,37.03
2023-02-11T07:44:50.516Z,36.53
2023-02-11T07:47:20.595Z,37.97
2023-02-11T07:49:49.126Z,38.97
2023-02-11T07:52:17.160Z,36.07
2023-02-11T07:54:45.302Z,35.60
2023-02-11T07:57:13.948Z,34.87
2023-02-11T07:59:42.006Z,35.87
2023-02-11T08:02:11.379Z,36.40
2023-02-11T08:04:41.227Z,35.03
2023-02-11T08:07:09.417Z,35.40
2023-02-11T08:09:38.439Z,35.43
2023-02-11T08:12:07.398Z,35.97
2023-02-11T08:14:35.587Z,35.80
2023-02-11T08:17:03.666Z,35.87
2023-02-11T08:19:34.095Z,34.80
2023-02-11T08:22:05.137Z,35.83
2023-02-11T08:24:33.255Z,34.73
2023-02-11T08:27:01.438Z,34.33
2023-02-11T08:29:30.548Z,34.07
2023-02-11T08:31:59.110Z,35.53
2023-02-11T08:34:27.558Z,34.13
2023-02-11T08:36:56.106Z,36.37
2023-02-11T08:39:25.634Z,34.30
2023-02-11T08:41:58.483Z,32.23
2023-02-11T08:44:27.523Z,35.63
2023-02-11T08:46:55.839Z,36.53
2023-02-11T08:49:24.249Z,34.90
2023-02-11T08:51:52.846Z,35.27
2023-02-11T08:54:21.253Z,34.37
2023-02-11T08:56:53.239Z,35.37
2023-02-11T08:59:21.831Z,35.23
2023-02-11T09:01:51.404Z,35.63
2023-02-11T09:04:19.894Z,34.93
2023-02-11T09:06:48.033Z,35.87
2023-02-11T09:09:18.509Z,34.33
2023-02-11T09:11:46.993Z,33.77
2023-02-11T09:14:22.226Z,35.87
2023-02-11T09:16:51.346Z,33.90
2023-02-11T09:19:20.037Z,34.20
2023-02-11T09:21:48.521Z,32.43
2023-02-11T09:24:16.867Z,34.30
2023-02-11T09:26:45.125Z,34.23
2023-02-11T09:29:13.501Z,34.53
2023-02-11T09:31:43.063Z,34.83
2023-02-11T09:34:13.872Z,33.37
2023-02-11T09:36:42.430Z,32.90
2023-02-11T09:39:14.137Z,35.53
2023-02-11T09:41:56.675Z,33.20
2023-02-11T09:44:26.935Z,32.93
2023-02-11T09:46:59.767Z,32.60
2023-02-11T09:49:36.557Z,31.57
2023-02-11T09:52:07.681Z,32.73
2023-02-11T09:54:41.326Z,32.47
2023-02-11T09:57:27.917Z,33.07
2023-02-11T09:59:58.007Z,32.47
2023-02-11T10:02:35.454Z,34.13
2023-02-11T10:05:28.273Z,32.93
2023-02-11T10:08:10.039Z,32.53
2023-02-11T10:10:49.019Z,31.10
2023-02-11T10:13:46.013Z,31.57
2023-02-11T10:16:30.365Z,31.47
2023-02-11T10:19:14.108Z,32.67
2023-02-11T10:21:51.779Z,31.13
2023-02-11T10:24:21.367Z,34.13
2023-02-11T10:26:50.652Z,32.63
2023-02-11T10:29:32.621Z,32.00
2023-02-11T10:32:08.992Z,32.10
2023-02-11T10:34:46.059Z,31.93
2023-02-11T10:37:15.310Z,32.53
2023-02-11T10:39:43.857Z,33.67
2023-02-11T10:42:15.255Z,34.13
2023-02-11T10:44:51.261Z,32.43
2023-02-11T10:47:23.405Z,32.47
2023-02-11T10:49:54.362Z,33.40
2023-02-11T10:52:25.212Z,33.57
2023-02-11T10:55:07.625Z,34.93
2023-02-11T10:57:38.681Z,33.37
2023-02-11T11:00:22.605Z,33.57
2023-02-11T11:02:57.160Z,34.20
2023-02-11T11:05:32.634Z,35.23
2023-02-11T11:08:03.493Z,33.40
2023-02-11T11:10:43.303Z,34.30
2023-02-11T11:13:29.687Z,33.67
2023-02-11T11:16:23.924Z,35.30
2023-02-11T11:18:55.064Z,34.23
2023-02-11T11:21:26.718Z,33.33
2023-02-11T11:23:58.639Z,32.80
2023-02-11T11:26:29.407Z,34.77
2023-02-11T11:29:03.996Z,35.43
2023-02-11T11:31:36.459Z,32.00
2023-02-11T11:34:20.328Z,33.47
2023-02-11T11:36:51.996Z,33.53
2023-02-11T11:39:24.219Z,32.50
2023-02-11T11:41:54.905Z,31.83
2023-02-11T11:44:29.075Z,32.87
2023-02-11T11:47:20.943Z,31.57
2023-02-11T11:49:58.291Z,32.40
2023-02-11T11:52:37.667Z,32.67
2023-02-11T11:55:14.873Z,33.43
2023-02-11T11:57:43.872Z,32.53
2023-02-11T12:00:21.010Z,33.23
2023-02-11T12:03:30.179Z,33.17
2023-02-11T12:06:13.157Z,33.60
2023-02-11T12:08:51.012Z,33.67
2023-02-11T12:11:27.485Z,31.83
2023-02-11T12:14:14.840Z,36.00
2023-02-11T12:16:57.846Z,34.13
2023-02-11T12:19:50.849Z,31.70
2023-02-11T12:22:34.902Z,30.80
2023-02-11T12:25:21.326Z,31.63
2023-02-11T12:27:54.361Z,31.70
2023-02-11T12:30:50.078Z,31.30
2023-02-11T12:33:34.127Z,34.13
2023-02-11T12:36:11.085Z,37.03
2023-02-11T12:39:06.207Z,35.93
2023-02-11T12:42:19.875Z,33.80
2023-02-11T12:45:09.122Z,32.63
2023-02-11T12:47:51.520Z,32.60
2023-02-11T12:50:27.969Z,32.50
2023-02-11T12:53:18.700Z,31.47
2023-02-11T12:55:50.555Z,31.40
2023-02-11T12:58:35.578Z,31.17
2023-02-11T13:01:18.177Z,31.07
2023-02-11T13:03:51.263Z,30.03
2023-02-11T13:06:23.644Z,33.87
2023-02-11T13:08:55.947Z,29.97
2023-02-11T13:11:27.503Z,26.57
2023-02-11T13:14:02.083Z,28.70
2023-02-11T13:16:37.931Z,26.23
2023-02-11T13:19:19.695Z,26.60
2023-02-11T13:21:57.107Z,27.63
2023-02-11T13:24:35.790Z,25.30
2023-02-11T13:27:12.954Z,28.47
2023-02-11T13:30:11.156Z,24.17
2023-02-11T13:33:04.150Z,26.17
2023-02-11T13:35:35.206Z,26.57
2023-02-11T13:38:05.917Z,26.00
2023-02-11T13:40:36.820Z,27.43
2023-02-11T13:43:20.578Z,25.67
2023-02-11T13:45:52.812Z,25.27
2023-02-11T13:48:24.757Z,25.03
2023-02-11T13:50:57.041Z,25.03
2023-02-11T13:53:28.491Z,24.00
2023-02-11T13:56:09.061Z,24.60
2023-02-11T13:58:40.174Z,32.60
2023-02-11T14:01:10.239Z,24.73
2023-02-11T14:03:57.418Z,23.87
2023-02-11T14:06:47.381Z,24.40
2023-02-11T14:09:37.395Z,23.33
2023-02-11T14:12:35.357Z,22.30
2023-02-11T14:15:20.565Z,25.90
2023-02-11T14:17:50.380Z,26.17
2023-02-11T14:20:43.497Z,22.90
2023-02-11T14:23:29.133Z,33.40
2023-02-11T14:26:23.585Z,22.83
2023-02-11T14:29:01.315Z,23.27
2023-02-11T14:31:36.835Z,23.93
2023-02-11T14:37:10.944Z,24.80
2023-02-11T14:39:54.799Z,25.87
2023-02-11T14:42:27.291Z,25.43
2023-02-11T14:44:57.810Z,25.23
2023-02-11T14:47:32.055Z,26.40
2023-02-11T14:50:00.216Z,48.03
2023-02-11T14:52:33.618Z,26.50
2023-02-11T14:55:15.166Z,38.33
2023-02-11T14:57:46.002Z,26.27
2023-02-11T15:00:19.861Z,27.10
2023-02-11T15:02:50.088Z,25.70
2023-02-11T15:05:26.274Z,27.57
2023-02-11T15:07:59.041Z,26.10
2023-02-11T15:10:32.034Z,27.20
2023-02-11T15:13:03.251Z,25.40
2023-02-11T15:15:34.780Z,26.00
2023-02-11T15:18:06.165Z,27.00
2023-02-11T15:20:36.052Z,25.97
2023-02-11T15:23:09.497Z,24.47
2023-02-11T15:25:44.546Z,27.50
2023-02-11T15:28:22.868Z,26.50
2023-02-11T15:30:58.431Z,25.27
2023-02-11T15:33:30.166Z,26.03
2023-02-11T15:35:59.152Z,24.63
2023-02-11T15:38:30.101Z,26.03
2023-02-11T15:41:02.304Z,24.87
2023-02-11T15:43:44.575Z,24.83
2023-02-11T15:46:18.186Z,29.13
2023-02-11T15:48:49.154Z,26.60
2023-02-11T15:51:22.432Z,27.97
2023-02-11T15:53:57.126Z,26.03
2023-02-11T15:56:29.884Z,27.00
2023-02-11T15:59:01.293Z,26.20
2023-02-11T16:01:39.497Z,25.83
2023-02-11T16:04:09.109Z,27.63
2023-02-11T16:06:40.421Z,27.33
2023-02-11T16:09:26.181Z,27.20
2023-02-11T16:12:00.129Z,27.20
2023-02-11T16:14:34.472Z,26.83
2023-02-11T16:17:06.312Z,26.93
2023-02-11T16:19:37.037Z,32.87
2023-02-11T16:22:10.599Z,32.40
2023-02-11T16:24:40.873Z,49.43
2023-02-11T16:27:22.791Z,30.70
2023-02-11T16:29:52.450Z,30.17
2023-02-11T16:32:21.851Z,27.73
2023-02-11T16:34:50.361Z,31.23
2023-02-11T16:37:20.515Z,36.20
2023-02-11T16:39:50.306Z,31.53
2023-02-11T16:42:18.647Z,32.50
2023-02-11T16:44:48.553Z,28.37
2023-02-11T16:47:21.487Z,30.83
2023-02-11T16:49:50.259Z,29.50
2023-02-11T16:52:19.631Z,29.23
2023-02-11T16:54:49.972Z,30.33
2023-02-11T16:57:19.808Z,30.17
2023-02-11T16:59:48.921Z,30.33
2023-02-11T17:02:23.608Z,29.80
2023-02-11T17:04:53.982Z,28.70
2023-02-11T17:07:22.506Z,28.93
2023-02-11T17:09:53.142Z,28.50
2023-02-11T17:12:21.753Z,28.73
2023-02-11T17:14:49.946Z,30.13
2023-02-11T17:17:19.797Z,27.57
2023-02-11T17:19:48.638Z,28.10
2023-02-11T17:22:17.072Z,28.07
2023-02-11T17:24:45.250Z,29.47
2023-02-11T17:27:15.610Z,28.63
2023-02-11T17:29:43.957Z,27.30
2023-02-11T17:32:13.733Z,28.40
2023-02-11T17:34:42.196Z,30.23
2023-02-11T17:37:10.685Z,29.97
2023-02-11T17:39:40.747Z,30.67
2023-02-11T17:42:09.582Z,29.30
2023-02-11T17:44:39.610Z,28.47
2023-02-11T17:47:09.466Z,30.37
2023-02-11T17:49:37.747Z,28.43
2023-02-11T17:52:06.407Z,28.10
2023-02-11T17:54:34.860Z,29.30
2023-02-11T17:57:03.544Z,29.00
2023-02-11T17:59:35.632Z,28.10
2023-02-11T18:02:06.580Z,27.70
2023-02-11T18:04:35.092Z,28.63
2023-02-11T18:07:03.325Z,27.97
2023-02-11T18:09:31.473Z,29.80
2023-02-11T18:11:59.752Z,28.97
2023-02-11T18:14:28.276Z,27.67
2023-02-11T18:16:56.725Z,28.50
2023-02-11T18:19:26.694Z,30.27
2023-02-11T18:21:58.055Z,27.70
2023-02-11T18:24:28.438Z,28.73
2023-02-11T18:26:56.764Z,29.83
2023-02-11T18:29:25.045Z,29.67
2023-02-11T18:31:56.801Z,28.80
2023-02-11T18:34:27.571Z,28.13
2023-02-11T18:36:55.871Z,27.00
2023-02-11T18:39:26.585Z,30.47
2023-02-11T18:41:58.955Z,28.33
2023-02-11T18:44:27.783Z,27.73
2023-02-11T18:46:56.368Z,25.80
2023-02-11T18:49:24.544Z,27.00
2023-02-11T18:51:54.289Z,27.00
2023-02-11T18:54:22.983Z,26.97
2023-02-11T18:56:51.969Z,26.87
2023-02-11T18:59:20.135Z,26.10
2023-02-11T19:01:48.323Z,27.27
2023-02-11T19:04:20.257Z,27.40
2023-02-11T19:06:50.656Z,28.63
2023-02-11T19:09:21.290Z,27.10
2023-02-11T19:11:50.409Z,25.93
2023-02-11T19:14:22.096Z,27.13
2023-02-11T19:16:51.781Z,26.40
2023-02-11T19:19:21.270Z,28.07
2023-02-11T19:21:49.374Z,28.13
2023-02-11T19:24:20.334Z,28.73
2023-02-11T19:26:49.606Z,26.53
2023-02-11T19:29:18.335Z,26.13
2023-02-11T19:31:47.790Z,27.47
2023-02-11T19:34:17.571Z,32.10
2023-02-11T19:36:45.934Z,33.07
2023-02-11T19:39:15.627Z,29.60
2023-02-11T19:41:45.255Z,29.27
2023-02-11T19:44:16.315Z,31.70
2023-02-11T19:46:44.727Z,36.70
2023-02-11T19:49:16.777Z,46.63
2023-02-11T19:51:45.299Z,34.63
2023-02-11T19:54:16.263Z,37.37
2023-02-11T19:56:47.489Z,41.53
2023-02-11T19:59:16.966Z,33.40
2023-02-11T20:01:47.799Z,33.83
2023-02-11T20:04:17.273Z,34.80
2023-02-11T20:06:48.390Z,32.80
2023-02-11T20:09:16.917Z,31.60
2023-02-11T20:11:46.737Z,30.50
2023-02-11T20:14:16.188Z,29.83
2023-02-11T20:16:49.838Z,29.80
2023-02-11T20:19:20.602Z,30.10
2023-02-11T20:21:50.563Z,31.60
2023-02-11T20:24:20.637Z,29.87
2023-02-11T20:26:51.849Z,29.50
2023-02-11T20:29:22.666Z,29.77
2023-02-11T20:31:52.039Z,29.47
2023-02-11T20:34:22.277Z,33.70
2023-02-11T20:36:52.959Z,31.30
2023-02-11T20:39:22.762Z,30.47
2023-02-11T20:41:54.148Z,32.53
2023-02-11T20:44:23.335Z,30.23
2023-02-11T20:46:54.341Z,30.33
2023-02-11T20:49:25.207Z,28.03
2023-02-11T20:51:55.620Z,29.90
2023-02-11T20:54:25.244Z,29.33
2023-02-11T20:56:57.065Z,30.80
2023-02-11T20:59:26.560Z,30.23
2023-02-11T21:01:59.516Z,31.13
2023-02-11T21:04:30.044Z,28.63
2023-02-11T21:07:00.320Z,29.57
2023-02-11T21:09:31.348Z,29.70
2023-02-11T21:12:01.452Z,30.27
2023-02-11T21:14:30.668Z,28.63
2023-02-11T21:16:59.320Z,28.73
2023-02-11T21:19:27.883Z,29.70
2023-02-11T21:21:57.486Z,29.57
2023-02-11T21:24:26.038Z,30.67
2023-02-11T21:26:54.154Z,33.87
2023-02-11T21:29:24.062Z,37.27
2023-02-11T21:31:53.234Z,37.10
2023-02-11T21:34:21.743Z,32.17
2023-02-11T21:36:51.367Z,32.07
2023-02-11T21:39:19.444Z,29.57
2023-02-11T21:41:47.788Z,32.20
2023-02-11T21:44:15.940Z,30.80
2023-02-11T21:46:46.049Z,29.83
2023-02-11T21:49:14.683Z,29.77
2023-02-11T21:51:43.011Z,30.43
2023-02-11T21:54:12.953Z,30.17
2023-02-11T21:56:41.247Z,42.00
2023-02-11T21:59:09.379Z,47.23
2023-02-11T22:01:37.899Z,40.83
2023-02-11T22:04:08.081Z,33.73
2023-02-11T22:06:36.733Z,39.23
2023-02-11T22:09:11.358Z,37.53
2023-02-11T22:11:39.678Z,30.43
2023-02-11T22:14:08.112Z,29.40
2023-02-11T22:16:36.406Z,27.40
2023-02-11T22:19:06.197Z,28.60
2023-02-11T22:21:35.972Z,28.03
2023-02-11T22:24:04.617Z,30.53
2023-02-11T22:26:32.921Z,30.90
2023-02-11T22:29:01.357Z,30.13
2023-02-11T22:31:32.386Z,30.10
2023-02-11T22:34:02.040Z,28.93
2023-02-11T22:36:32.891Z,30.33
2023-02-11T22:39:04.064Z,28.17
2023-02-11T22:41:32.535Z,30.70
2023-02-11T22:44:00.616Z,29.13
2023-02-11T22:46:28.666Z,29.93
2023-02-11T22:48:57.457Z,28.60
2023-02-11T22:51:26.883Z,29.90
2023-02-11T22:53:57.403Z,30.97
2023-02-11T22:56:28.533Z,31.97
2023-02-11T22:58:58.643Z,32.50
2023-02-11T23:01:27.512Z,29.63
2023-02-11T23:03:56.006Z,31.43
2023-02-11T23:06:24.454Z,30.27
2023-02-11T23:08:53.114Z,30.73
2023-02-11T23:11:23.808Z,30.87
2023-02-11T23:13:54.813Z,31.33
2023-02-11T23:16:25.886Z,31.73
2023-02-11T23:18:55.723Z,29.77
2023-02-11T23:21:27.884Z,29.93
2023-02-11T23:23:57.661Z,31.40
2023-02-11T23:26:26.639Z,29.70
2023-02-11T23:28:56.884Z,32.23
2023-02-11T23:31:29.946Z,31.63
2023-02-11T23:33:58.364Z,31.93
2023-02-11T23:36:26.595Z,31.90
2023-02-11T23:38:54.848Z,32.67
2023-02-11T23:41:26.058Z,33.43
2023-02-11T23:43:58.390Z,33.27
2023-02-11T23:46:28.566Z,31.57
2023-02-11T23:48:58.381Z,33.00
2023-02-11T23:51:26.788Z,34.13
2023-02-11T23:53:57.634Z,32.60
2023-02-11T23:56:28.428Z,32.43
2023-02-11T23:58:59.958Z,31.70
